Time;durP1;ratioP1;P1;durP2;ratioP2;P2;SDS_P1;SDS_P2;PMS_P1;PMS_P2;Temp;Humidity;BMP_temperature;BMP_pressure;BME280_temperature;BME280_humidity;BME280_pressure;Samples;Min_cycle;Max_cycle;Signal;HPM_P1;HPM_P2
2022/09/27 00:00:58;;;;;;;7.00;4.80;;;11.90;99.90;;;;;;5069480;28;20497;-61
2022/09/27 00:03:25;;;;;;;14.07;6.27;;;12.00;99.90;;;;;;5068895;28;20490;-60
2022/09/27 00:06:04;;;;;;;6.17;4.33;;;12.00;99.90;;;;;;5074450;28;20495;-60
2022/09/27 00:08:32;;;;;;;8.43;5.73;;;12.00;99.90;;;;;;5063941;28;20490;-61
2022/09/27 00:11:00;;;;;;;14.00;6.80;;;12.00;99.90;;;;;;5071898;28;20665;-61
2022/09/27 00:13:27;;;;;;;16.13;7.63;;;11.90;99.90;;;;;;5066065;28;20823;-61
2022/09/27 00:15:59;;;;;;;7.57;5.43;;;11.90;99.90;;;;;;5069247;28;20489;-63
2022/09/27 00:18:26;;;;;;;14.50;8.17;;;12.00;99.90;;;;;;5071468;28;20482;-60
2022/09/27 00:20:53;;;;;;;11.80;4.17;;;12.00;99.90;;;;;;5073292;28;20893;-60
2022/09/27 00:23:21;;;;;;;14.13;8.20;;;12.00;99.90;;;;;;5073775;28;20482;-61
2022/09/27 00:25:58;;;;;;;11.10;5.10;;;12.00;99.90;;;;;;5074183;28;20833;-60
2022/09/27 00:28:25;;;;;;;12.10;4.80;;;12.00;99.90;;;;;;5071254;28;20855;-60
2022/09/27 00:30:52;;;;;;;14.43;5.57;;;12.00;99.90;;;;;;5072269;28;20544;-60
2022/09/27 00:33:19;;;;;;;10.60;6.87;;;12.10;99.90;;;;;;5070828;28;20485;-60
2022/09/27 00:35:46;;;;;;;11.83;4.00;;;12.10;99.90;;;;;;5073840;28;20482;-60
2022/09/27 00:38:13;;;;;;;7.63;4.80;;;12.00;99.90;;;;;;5071447;28;20470;-59
2022/09/27 00:40:42;;;;;;;7.53;4.80;;;;;;;;;;5072404;28;20489;-60
2022/09/27 00:43:17;;;;;;;14.63;6.90;;;12.10;99.90;;;;;;5074188;28;20558;-60
2022/09/27 00:45:47;;;;;;;7.20;4.27;;;12.00;99.90;;;;;;5060084;28;20478;-60
2022/09/27 00:48:18;;;;;;;11.77;6.00;;;12.00;99.90;;;;;;5071170;28;20527;-60
2022/09/27 00:50:48;;;;;;;7.20;5.37;;;12.10;99.90;;;;;;5069669;28;20749;-61
2022/09/27 00:53:18;;;;;;;14.80;8.97;;;12.00;99.90;;;;;;5069491;28;20833;-59
2022/09/27 00:55:50;;;;;;;12.30;5.00;;;12.00;99.90;;;;;;5070681;28;21225;-60
2022/09/27 00:58:21;;;;;;;10.03;7.90;;;12.00;99.90;;;;;;5068867;28;20486;-60
2022/09/27 01:00:52;;;;;;;8.00;5.33;;;12.00;99.90;;;;;;5072848;28;20795;-60
2022/09/27 01:03:25;;;;;;;19.07;8.30;;;12.10;99.90;;;;;;5060654;28;20518;-60
2022/09/27 01:05:53;;;;;;;7.60;3.93;;;12.00;99.90;;;;;;5071213;28;20475;-60
2022/09/27 01:08:19;;;;;;;12.87;7.57;;;12.10;99.90;;;;;;5070628;28;20487;-60
2022/09/27 01:10:59;;;;;;;6.57;5.73;;;12.00;99.90;;;;;;5064047;28;20498;-61
2022/09/27 01:13:34;;;;;;;11.13;6.10;;;12.00;99.90;;;;;;5072143;28;20489;-60
2022/09/27 01:16:09;;;;;;;12.10;6.33;;;12.00;99.90;;;;;;5072075;28;20538;-60
2022/09/27 01:18:42;;;;;;;19.03;4.90;;;12.00;99.90;;;;;;5069862;28;20470;-60
2022/09/27 01:21:44;;;;;;;12.53;8.73;;;12.00;99.90;;;;;;5072878;28;20875;-61
2022/09/27 01:24:25;;;;;;;19.83;9.90;;;11.90;99.90;;;;;;5047467;28;20502;-61
2022/09/27 01:27:25;;;;;;;22.53;7.03;;;11.90;99.90;;;;;;5073872;28;20602;-60
2022/09/27 01:30:10;;;;;;;15.70;7.60;;;12.00;99.90;;;;;;5069553;28;20764;-60
2022/09/27 01:32:46;;;;;;;12.37;6.67;;;11.90;99.90;;;;;;5071808;28;20470;-60
2022/09/27 01:35:22;;;;;;;25.87;10.40;;;11.90;99.90;;;;;;5056232;28;20979;-60
2022/09/27 01:37:57;;;;;;;14.27;7.83;;;11.90;99.90;;;;;;5067568;28;20482;-61
2022/09/27 01:40:31;;;;;;;19.17;8.53;;;11.90;99.90;;;;;;5073015;28;20790;-60
2022/09/27 01:43:05;;;;;;;13.70;7.17;;;11.80;99.90;;;;;;5073038;28;20972;-61
2022/09/27 01:45:38;;;;;;;9.60;6.17;;;11.80;99.90;;;;;;5062230;28;20528;-61
2022/09/27 01:48:12;;;;;;;12.83;6.10;;;11.80;99.90;;;;;;5070574;28;20482;-61
2022/09/27 01:50:42;;;;;;;12.27;6.00;;;11.80;99.90;;;;;;5072079;28;20490;-61
2022/09/27 01:53:13;;;;;;;12.73;6.50;;;11.80;99.90;;;;;;5071543;28;20527;-61
2022/09/27 01:55:41;;;;;;;10.37;6.83;;;11.80;99.90;;;;;;5071747;28;20478;-61
2022/09/27 01:58:14;;;;;;;8.77;6.03;;;11.80;99.90;;;;;;5071268;28;20486;-60
2022/09/27 02:00:46;;;;;;;8.20;3.97;;;11.80;99.90;;;;;;5072612;28;20486;-61
2022/09/27 02:03:17;;;;;;;14.73;9.50;;;11.80;99.90;;;;;;5069086;28;20524;-61
2022/09/27 02:05:45;;;;;;;7.67;5.67;;;;;;;;;;5062816;28;20497;-61
2022/09/27 02:08:17;;;;;;;19.13;7.37;;;11.80;99.90;;;;;;5073714;28;20462;-61
2022/09/27 02:10:45;;;;;;;7.00;5.90;;;11.90;99.90;;;;;;5073870;28;20481;-61
2022/09/27 02:13:17;;;;;;;11.40;5.30;;;;;;;;;;5079002;28;20490;-61
2022/09/27 02:15:52;;;;;;;7.90;4.40;;;11.80;99.90;;;;;;5073543;28;20513;-61
2022/09/27 02:18:27;;;;;;;19.47;7.83;;;11.70;99.90;;;;;;5062160;28;20478;-61
2022/09/27 02:20:58;;;;;;;18.13;8.17;;;11.80;99.90;;;;;;5071329;28;20474;-61
2022/09/27 02:23:34;;;;;;;8.63;6.90;;;11.80;99.90;;;;;;5074832;28;20478;-61
2022/09/27 02:26:05;;;;;;;16.37;5.87;;;11.70;99.90;;;;;;5076361;28;20982;-61
2022/09/27 02:28:35;;;;;;;11.70;5.30;;;11.70;99.90;;;;;;5076038;28;20478;-60
2022/09/27 02:31:03;;;;;;;11.93;5.40;;;11.70;99.90;;;;;;5076595;28;20483;-60
2022/09/27 02:33:35;;;;;;;7.27;5.57;;;11.70;99.90;;;;;;5075352;28;20482;-60
2022/09/27 02:36:02;;;;;;;7.97;5.50;;;11.80;99.90;;;;;;5075785;28;20486;-60
2022/09/27 02:38:29;;;;;;;12.90;3.87;;;11.70;99.90;;;;;;5075749;28;20844;-61
2022/09/27 02:40:56;;;;;;;12.83;5.00;;;11.80;99.90;;;;;;5074150;28;20849;-60
2022/09/27 02:43:27;;;;;;;8.20;6.60;;;11.70;99.90;;;;;;5073436;28;20482;-60
2022/09/27 02:46:11;;;;;;;15.00;5.37;;;11.70;99.90;;;;;;5075099;28;21207;-60
2022/09/27 02:48:48;;;;;;;8.90;5.97;;;11.70;99.90;;;;;;5070521;28;20478;-60
2022/09/27 02:51:33;;;;;;;11.57;7.63;;;11.70;99.90;;;;;;5070721;28;20978;-60
2022/09/27 02:54:14;;;;;;;6.30;4.77;;;11.70;99.90;;;;;;5075965;28;20479;-60
2022/09/27 02:56:51;;;;;;;6.10;4.60;;;11.70;99.90;;;;;;5073404;28;20714;-60
2022/09/27 02:59:26;;;;;;;10.70;7.13;;;11.70;99.90;;;;;;5060889;28;20656;-60
2022/09/27 03:02:03;;;;;;;6.03;4.50;;;11.70;99.90;;;;;;5071186;28;20535;-61
2022/09/27 03:04:33;;;;;;;6.03;4.17;;;;;;;;;;5074644;28;20502;-61
2022/09/27 03:07:01;;;;;;;7.20;5.57;;;11.70;99.90;;;;;;5073739;28;20926;-60
2022/09/27 03:09:30;;;;;;;7.50;5.43;;;11.70;99.90;;;;;;5074482;28;20474;-60
2022/09/27 03:11:57;;;;;;;5.87;3.90;;;11.80;99.90;;;;;;5074619;28;20935;-60
2022/09/27 03:14:23;;;;;;;11.50;6.70;;;11.80;99.90;;;;;;5063291;28;20512;-60
2022/09/27 03:16:50;;;;;;;9.07;5.70;;;11.80;99.90;;;;;;5072565;28;20516;-60
2022/09/27 03:19:18;;;;;;;18.47;9.07;;;11.80;99.90;;;;;;5069804;28;20481;-60
2022/09/27 03:21:45;;;;;;;12.33;6.37;;;11.80;99.90;;;;;;5074027;28;20993;-60
2022/09/27 03:24:11;;;;;;;18.30;8.77;;;11.70;99.90;;;;;;5074055;28;20494;-60
2022/09/27 03:26:38;;;;;;;18.17;6.07;;;11.60;99.90;;;;;;5067516;28;21045;-61
2022/09/27 03:29:05;;;;;;;10.57;6.20;;;11.60;99.90;;;;;;5074229;28;20867;-60
2022/09/27 03:31:31;;;;;;;14.33;5.13;;;11.70;99.90;;;;;;5074960;28;20553;-60
2022/09/27 03:33:58;;;;;;;11.80;5.97;;;11.60;99.90;;;;;;5075092;28;20717;-61
2022/09/27 03:36:26;;;;;;;16.33;8.60;;;11.60;99.90;;;;;;5069804;28;20474;-61
2022/09/27 03:38:53;;;;;;;11.77;5.77;;;11.60;99.90;;;;;;5074542;28;20494;-60
2022/09/27 03:41:19;;;;;;;15.33;8.13;;;11.50;99.90;;;;;;5074189;28;20502;-61
2022/09/27 03:43:46;;;;;;;9.03;5.00;;;11.50;99.90;;;;;;5071937;28;20497;-60
2022/09/27 03:46:13;;;;;;;21.37;9.47;;;11.40;99.90;;;;;;5064400;28;20489;-61
2022/09/27 03:48:41;;;;;;;15.43;6.57;;;11.40;99.90;;;;;;5079630;28;20486;-60
2022/09/27 03:51:08;;;;;;;23.00;6.83;;;8.30;99.90;;;;;;5072708;28;20559;-61
2022/09/27 03:53:36;;;;;;;21.37;7.20;;;11.40;99.90;;;;;;5073842;28;20482;-60
2022/09/27 03:56:03;;;;;;;12.33;5.90;;;11.40;99.90;;;;;;5074191;28;20491;-60
2022/09/27 03:58:29;;;;;;;18.60;6.43;;;11.40;99.90;;;;;;5061410;28;20930;-60
2022/09/27 04:00:56;;;;;;;9.57;5.20;;;11.40;99.90;;;;;;5073601;28;20494;-60
2022/09/27 04:03:25;;;;;;;13.07;5.80;;;11.40;99.90;;;;;;5070030;28;20482;-61
2022/09/27 04:05:52;;;;;;;4.93;4.30;;;11.40;99.90;;;;;;5072073;28;20805;-61
2022/09/27 04:08:19;;;;;;;9.03;5.97;;;11.40;99.90;;;;;;5071683;28;20483;-60
2022/09/27 04:10:47;;;;;;;7.13;3.23;;;11.30;99.90;;;;;;5074152;28;20485;-61
2022/09/27 04:13:14;;;;;;;10.77;7.87;;;11.30;99.90;;;;;;5069907;28;21200;-61
2022/09/27 04:15:42;;;;;;;6.93;4.83;;;11.40;99.90;;;;;;5077435;28;20481;-62
2022/09/27 04:18:09;;;;;;;7.13;3.80;;;11.40;99.90;;;;;;5064919;28;20489;-61
2022/09/27 04:20:37;;;;;;;8.20;5.07;;;11.40;99.90;;;;;;5060869;28;21017;-62
2022/09/27 04:23:03;;;;;;;8.13;4.90;;;11.40;99.90;;;;;;5069809;28;21006;-62
2022/09/27 04:25:31;;;;;;;22.90;5.20;;;11.30;99.90;;;;;;5068696;28;20841;-62
2022/09/27 04:28:00;;;;;;;4.70;3.13;;;11.40;99.90;;;;;;5073376;28;20477;-62
2022/09/27 04:30:27;;;;;;;11.13;4.20;;;;;;;;;;5073770;28;20561;-63
2022/09/27 04:32:54;;;;;;;5.60;3.23;;;11.30;99.90;;;;;;5059401;27;21145;-62
2022/09/27 04:38:05;;;;;;;9.43;4.83;;;11.20;99.90;;;;;;5059006;28;20847;-62
2022/09/27 04:40:34;;;;;;;6.60;4.07;;;11.10;99.90;;;;;;5071007;28;20485;-61
2022/09/27 04:43:03;;;;;;;4.40;3.77;;;11.10;99.90;;;;;;5061649;28;20826;-62
2022/09/27 04:45:30;;;;;;;6.10;4.23;;;11.10;99.90;;;;;;5062260;28;21933;-61
2022/09/27 04:47:57;;;;;;;6.60;3.67;;;11.00;99.90;;;;;;5073328;28;20493;-61
2022/09/27 04:50:24;;;;;;;8.37;5.40;;;11.10;99.90;;;;;;5070527;28;21233;-61
2022/09/27 04:52:52;;;;;;;5.40;3.43;;;11.10;99.90;;;;;;5071022;28;20486;-61
2022/09/27 04:55:20;;;;;;;6.60;5.53;;;11.20;99.90;;;;;;5069123;28;20559;-61
2022/09/27 04:57:46;;;;;;;6.97;5.53;;;11.10;99.90;;;;;;5071661;28;21374;-60
2022/09/27 05:00:15;;;;;;;15.00;4.87;;;11.10;99.90;;;;;;5072635;28;21085;-61
2022/09/27 05:02:42;;;;;;;6.70;4.27;;;11.00;99.90;;;;;;5072761;28;21047;-61
2022/09/27 05:05:09;;;;;;;11.20;6.07;;;11.10;99.90;;;;;;5071205;28;20486;-61
2022/09/27 05:07:38;;;;;;;15.27;5.47;;;11.10;99.90;;;;;;5074047;28;20576;-61
2022/09/27 05:10:05;;;;;;;9.20;5.60;;;11.00;99.90;;;;;;5072502;28;20497;-60
2022/09/27 05:12:32;;;;;;;14.10;6.27;;;11.00;99.90;;;;;;5072433;28;20482;-61
2022/09/27 05:14:59;;;;;;;16.10;5.97;;;11.00;99.90;;;;;;5072411;28;20877;-61
2022/09/27 05:17:27;;;;;;;6.47;4.93;;;10.90;99.90;;;;;;5072728;28;20567;-61
2022/09/27 05:19:54;;;;;;;9.20;4.30;;;11.00;99.90;;;;;;5062765;28;20477;-61
2022/09/27 05:22:20;;;;;;;9.57;5.73;;;11.00;99.90;;;;;;5055337;28;20853;-61
2022/09/27 05:24:47;;;;;;;6.93;4.97;;;11.00;99.90;;;;;;5067400;28;20640;-60
2022/09/27 05:27:17;;;;;;;14.57;6.43;;;11.10;99.90;;;;;;5073409;28;20482;-61
2022/09/27 05:29:44;;;;;;;11.47;4.20;;;11.00;99.90;;;;;;5071385;28;20482;-60
2022/09/27 05:32:10;;;;;;;12.07;7.37;;;11.10;99.90;;;;;;5062762;28;20966;-60
2022/09/27 05:34:38;;;;;;;11.73;5.87;;;11.10;99.90;;;;;;5086042;28;20470;-60
2022/09/27 05:37:06;;;;;;;14.20;4.83;;;11.20;99.90;;;;;;5075482;28;20475;-60
2022/09/27 05:39:32;;;;;;;11.00;6.37;;;11.20;99.90;;;;;;5073469;28;20502;-60
2022/09/27 05:42:00;;;;;;;9.80;5.77;;;11.20;99.90;;;;;;5077076;28;20587;-61
2022/09/27 05:44:27;;;;;;;17.53;4.73;;;11.00;99.90;;;;;;5075745;28;20490;-60
2022/09/27 05:46:53;;;;;;;6.00;4.40;;;11.10;99.90;;;;;;5074725;28;20487;-60
2022/09/27 05:49:20;;;;;;;10.93;7.00;;;11.00;99.90;;;;;;5069581;28;20486;-60
2022/09/27 05:51:48;;;;;;;15.40;4.33;;;11.10;99.90;;;;;;5072645;28;20709;-60
2022/09/27 05:54:15;;;;;;;13.97;8.97;;;12.70;99.90;;;;;;5059696;28;20757;-60
2022/09/27 05:56:41;;;;;;;8.37;4.90;;;11.10;99.90;;;;;;5069038;28;20520;-60
2022/09/27 05:59:08;;;;;;;18.83;6.73;;;11.10;99.90;;;;;;5071136;28;20868;-60
2022/09/27 06:01:35;;;;;;;17.03;8.03;;;11.20;99.90;;;;;;5056459;28;20479;-61
2022/09/27 06:04:03;;;;;;;18.83;6.90;;;11.20;99.90;;;;;;5072476;28;20774;-60
2022/09/27 06:06:30;;;;;;;20.87;5.30;;;;;;;;;;5068272;28;20502;-61
2022/09/27 06:09:00;;;;;;;10.07;4.27;;;11.20;99.90;;;;;;5045704;28;20487;-60
2022/09/27 06:11:26;;;;;;;34.33;9.80;;;9.10;99.90;;;;;;5069466;28;20480;-60
2022/09/27 06:13:53;;;;;;;21.97;6.93;;;11.20;99.90;;;;;;5064785;28;20478;-60
2022/09/27 06:16:20;;;;;;;28.07;8.10;;;11.20;99.90;;;;;;5061102;28;20601;-60
2022/09/27 06:18:47;;;;;;;26.47;8.00;;;;;;;;;;5069679;28;20470;-61
2022/09/27 06:21:14;;;;;;;16.43;7.33;;;7.70;99.90;;;;;;5058216;28;20658;-60
2022/09/27 06:23:41;;;;;;;12.07;6.13;;;11.10;99.90;;;;;;5069601;28;20543;-60
2022/09/27 06:26:09;;;;;;;7.10;5.03;;;11.10;99.90;;;;;;5066172;28;20498;-60
2022/09/27 06:28:36;;;;;;;9.93;6.50;;;11.10;99.90;;;;;;5066894;28;20482;-61
2022/09/27 06:31:06;;;;;;;8.03;5.17;;;11.00;99.90;;;;;;5071610;28;20502;-60
2022/09/27 06:33:34;;;;;;;12.13;4.70;;;11.00;99.90;;;;;;5071943;28;20486;-61
2022/09/27 06:36:02;;;;;;;4.73;4.23;;;11.00;99.90;;;;;;5071798;28;20486;-61
2022/09/27 06:38:28;;;;;;;7.10;6.40;;;11.00;99.90;;;;;;5070079;28;20478;-60
2022/09/27 06:40:56;;;;;;;4.63;4.20;;;11.10;99.90;;;;;;5071876;28;21004;-60
2022/09/27 06:43:25;;;;;;;9.10;7.00;;;11.10;99.90;;;;;;5068426;28;20991;-60
2022/09/27 06:45:51;;;;;;;7.20;4.80;;;11.10;99.90;;;;;;5074601;28;20944;-60
2022/09/27 06:48:18;;;;;;;20.83;7.40;;;11.10;99.90;;;;;;5070581;28;20759;-60
2022/09/27 06:50:47;;;;;;;8.40;5.27;;;11.10;99.90;;;;;;5072990;28;20485;-60
2022/09/27 06:53:16;;;;;;;7.27;6.57;;;11.20;99.90;;;;;;5075245;28;20474;-61
2022/09/27 06:55:43;;;;;;;18.53;5.03;;;11.20;99.90;;;;;;5076708;28;21010;-60
2022/09/27 07:00:57;;;;;;;5.77;4.77;;;11.30;99.90;;;;;;5059186;28;20481;-61
2022/09/27 07:03:30;;;;;;;11.17;7.60;;;11.40;99.90;;;;;;5077512;28;20478;-62
2022/09/27 07:05:58;;;;;;;6.10;5.40;;;11.40;99.90;;;;;;5076009;28;20728;-61
2022/09/27 07:08:27;;;;;;;9.80;5.57;;;11.50;99.90;;;;;;5073796;28;20501;-60
2022/09/27 07:10:55;;;;;;;16.90;5.70;;;11.50;99.90;;;;;;5074009;28;20994;-61
2022/09/27 07:13:22;;;;;;;10.70;6.80;;;11.50;99.90;;;;;;5066081;28;20490;-60
2022/09/27 07:15:49;;;;;;;13.07;6.20;;;11.50;99.90;;;;;;5091329;28;20920;-61
2022/09/27 07:18:17;;;;;;;11.13;6.47;;;11.60;99.90;;;;;;5076938;28;20482;-61
2022/09/27 07:20:44;;;;;;;7.43;6.70;;;11.60;99.90;;;;;;5065025;28;20485;-61
2022/09/27 07:23:11;;;;;;;18.07;13.17;;;11.70;99.90;;;;;;5072996;28;20498;-61
2022/09/27 07:25:38;;;;;;;7.40;6.00;;;11.60;99.90;;;;;;5072760;28;20479;-61
2022/09/27 07:28:07;;;;;;;12.53;6.93;;;11.60;99.90;;;;;;5059707;28;20986;-61
2022/09/27 07:30:36;;;;;;;11.03;7.40;;;11.70;99.90;;;;;;5071074;28;21051;-61
2022/09/27 07:33:06;;;;;;;11.97;8.70;;;11.60;99.90;;;;;;5071049;28;21045;-61
2022/09/27 07:35:35;;;;;;;10.97;6.20;;;11.80;99.90;;;;;;5073240;28;20478;-60
2022/09/27 07:38:04;;;;;;;10.23;6.70;;;11.80;99.90;;;;;;5074159;28;21021;-61
2022/09/27 07:40:30;;;;;;;9.93;8.60;;;11.80;99.90;;;;;;5072108;28;20489;-61
2022/09/27 07:42:58;;;;;;;16.13;6.60;;;11.70;99.90;;;;;;5066430;28;20479;-63
2022/09/27 07:45:25;;;;;;;11.40;8.93;;;11.70;99.90;;;;;;5073600;28;20474;-62
2022/09/27 07:47:52;;;;;;;12.13;7.17;;;11.70;99.90;;;;;;5073488;28;20479;-61
2022/09/27 07:50:19;;;;;;;26.40;6.93;;;11.70;99.90;;;;;;5074206;28;21169;-61
2022/09/27 07:52:50;;;;;;;8.97;7.07;;;11.60;99.90;;;;;;5062734;28;20973;-62
2022/09/27 07:55:18;;;;;;;9.50;7.33;;;11.70;99.90;;;;;;5061313;28;20862;-60
2022/09/27 07:57:44;;;;;;;14.70;6.93;;;11.90;99.90;;;;;;5073958;28;20475;-60
2022/09/27 08:00:14;;;;;;;18.17;8.43;;;12.00;99.90;;;;;;5073144;28;20482;-61
2022/09/27 08:02:41;;;;;;;13.20;6.90;;;12.10;99.90;;;;;;5073466;28;20473;-60
2022/09/27 08:05:09;;;;;;;16.33;6.57;;;12.60;99.90;;;;;;5073845;28;20486;-60
2022/09/27 08:07:37;;;;;;;14.03;9.17;;;12.60;99.90;;;;;;5069404;28;20479;-60
2022/09/27 08:10:07;;;;;;;16.93;7.27;;;;;;;;;;5073843;28;20811;-61
2022/09/27 08:12:33;;;;;;;13.13;7.53;;;12.70;99.90;;;;;;5071129;28;21066;-61
2022/09/27 08:15:01;;;;;;;13.63;8.00;;;12.60;99.90;;;;;;5073223;28;20491;-62
2022/09/27 08:17:28;;;;;;;13.90;8.43;;;12.40;99.90;;;;;;5073890;28;20510;-61
2022/09/27 08:19:55;;;;;;;12.80;6.80;;;12.20;99.90;;;;;;5073558;28;20490;-61
2022/09/27 08:22:23;;;;;;;36.40;12.90;;;12.10;99.90;;;;;;5072769;28;20514;-62
2022/09/27 08:24:50;;;;;;;20.83;9.33;;;12.10;99.90;;;;;;5059733;28;20978;-62
2022/09/27 08:27:18;;;;;;;50.20;13.10;;;11.90;99.90;;;;;;5073015;28;20837;-62
2022/09/27 08:29:46;;;;;;;90.47;13.10;;;;;;;;;;5072671;28;20809;-61
2022/09/27 08:32:13;;;;;;;41.77;11.50;;;11.90;99.90;;;;;;5074923;28;20562;-61
2022/09/27 08:34:40;;;;;;;34.73;11.17;;;11.80;99.90;;;;;;5072504;28;20483;-62
2022/09/27 08:37:07;;;;;;;20.30;8.63;;;;;;;;;;5075575;28;21223;-62
2022/09/27 08:39:34;;;;;;;21.63;7.20;;;11.10;99.90;;;;;;5072769;28;20482;-61
2022/09/27 08:42:09;;;;;;;19.77;8.20;;;11.70;99.90;;;;;;5067684;28;20486;-61
2022/09/27 08:44:47;;;;;;;24.30;8.40;;;11.90;99.90;;;;;;5070636;28;20891;-61
2022/09/27 08:47:17;;;;;;;33.77;11.93;;;11.90;99.90;;;;;;5073701;28;20546;-61
2022/09/27 08:49:49;;;;;;;21.97;9.23;;;11.90;99.90;;;;;;5061317;28;20484;-61
2022/09/27 08:52:21;;;;;;;22.97;6.37;;;12.00;99.90;;;;;;5071275;28;20723;-62
2022/09/27 08:54:49;;;;;;;21.63;8.57;;;8.70;99.90;;;;;;5072775;28;20478;-61
2022/09/27 08:57:16;;;;;;;23.60;10.80;;;12.10;99.90;;;;;;5071545;28;20479;-61
2022/09/27 08:59:51;;;;;;;17.23;6.60;;;12.00;99.90;;;;;;5072961;28;20581;-61
2022/09/27 09:02:23;;;;;;;17.50;9.00;;;12.10;99.90;;;;;;5068570;28;20482;-62
2022/09/27 09:04:54;;;;;;;6.80;4.00;;;12.20;99.90;;;;;;5060400;28;20494;-62
2022/09/27 09:07:37;;;;;;;11.63;7.83;;;12.30;99.90;;;;;;5061314;28;20482;-61
2022/09/27 09:12:45;;;;;;;24.10;5.07;;;12.30;99.90;;;;;;5070939;28;20490;-61
2022/09/27 09:13:13;;;;;;;7.30;4.23;;;12.40;99.90;;;;;;5072287;28;20834;-60
2022/09/27 09:15:54;;;;;;;8.93;5.87;;;12.20;99.90;;;;;;5069838;28;20469;-60
2022/09/27 09:18:38;;;;;;;7.20;6.50;;;12.10;99.90;;;;;;5072533;28;20482;-61
2022/09/27 09:21:13;;;;;;;12.83;4.63;;;12.30;99.90;;;;;;5085184;28;20479;-61
2022/09/27 09:24:05;;;;;;;8.63;4.77;;;12.40;99.90;;;;;;5074614;28;20474;-61
2022/09/27 09:26:37;;;;;;;7.50;4.47;;;12.80;99.90;;;;;;5060866;28;20815;-62
2022/09/27 09:29:16;;;;;;;10.73;3.37;;;13.10;99.90;;;;;;5071230;28;20539;-63
2022/09/27 09:31:51;;;;;;;5.10;4.03;;;13.20;99.90;;;;;;5071167;28;21032;-62
2022/09/27 09:34:20;;;;;;;8.93;3.83;;;13.40;99.90;;;;;;5061788;28;20514;-62
2022/09/27 09:36:52;;;;;;;3.10;2.73;;;13.60;99.90;;;;;;5070729;28;20461;-62
2022/09/27 09:39:24;;;;;;;6.10;4.53;;;13.60;99.90;;;;;;5069955;28;20629;-63
2022/09/27 09:42:06;;;;;;;4.27;3.00;;;13.30;99.20;;;;;;5070831;28;21116;-63
2022/09/27 09:44:40;;;;;;;3.80;2.93;;;13.30;99.90;;;;;;5069608;28;20474;-63
2022/09/27 09:47:19;;;;;;;3.83;3.53;;;13.30;99.50;;;;;;5072629;28;20486;-63
2022/09/27 09:49:49;;;;;;;3.00;2.70;;;13.40;99.90;;;;;;5071183;28;20478;-63
2022/09/27 09:52:20;;;;;;;4.10;3.27;;;13.20;98.90;;;;;;5071415;28;20746;-63
2022/09/27 09:54:50;;;;;;;3.67;3.23;;;13.30;99.40;;;;;;5072747;28;21017;-62
2022/09/27 09:57:20;;;;;;;5.20;4.70;;;13.30;99.60;;;;;;5072451;28;20850;-62
2022/09/27 09:59:51;;;;;;;2.90;2.70;;;13.50;99.40;;;;;;5060259;28;20509;-62
2022/09/27 10:02:29;;;;;;;6.70;4.93;;;13.50;99.50;;;;;;5071057;28;20483;-62
2022/09/27 10:04:56;;;;;;;6.60;3.63;;;13.50;99.00;;;;;;5060794;28;20468;-62
2022/09/27 10:07:23;;;;;;;7.20;4.60;;;13.60;99.20;;;;;;5070452;28;21031;-63
2022/09/27 10:09:51;;;;;;;3.60;2.60;;;13.70;99.60;;;;;;5071293;28;20486;-63
2022/09/27 10:12:18;;;;;;;5.03;4.20;;;13.60;98.20;;;;;;5070170;28;20509;-61
2022/09/27 10:14:47;;;;;;;5.70;2.60;;;13.60;97.80;;;;;;5071178;28;20482;-61
2022/09/27 10:17:18;;;;;;;7.43;3.50;;;13.80;98.40;;;;;;5068819;28;20482;-61
2022/09/27 10:19:48;;;;;;;5.20;2.80;;;13.90;98.80;;;;;;5070477;28;20488;-61
2022/09/27 10:22:22;;;;;;;5.23;4.53;;;14.10;98.00;;;;;;5067582;28;20483;-61
2022/09/27 10:25:00;;;;;;;6.67;2.77;;;14.10;98.20;;;;;;5073228;28;20565;-61
2022/09/27 10:27:28;;;;;;;5.60;3.47;;;14.30;98.30;;;;;;5075499;28;21363;-61
2022/09/27 10:29:59;;;;;;;9.90;2.53;;;14.20;97.80;;;;;;5072813;28;20485;-61
2022/09/27 10:32:31;;;;;;;4.00;3.70;;;14.00;96.80;;;;;;5063903;28;20685;-62
2022/09/27 10:35:21;;;;;;;5.03;3.93;;;14.00;95.90;;;;;;5077594;28;20558;-62
2022/09/27 10:37:48;;;;;;;6.53;4.37;;;14.10;97.30;;;;;;5072951;28;20485;-61
2022/09/27 10:40:30;;;;;;;5.53;4.90;;;14.10;97.00;;;;;;5074462;28;20808;-61
2022/09/27 10:42:56;;;;;;;6.10;2.90;;;14.30;97.00;;;;;;5074210;28;20821;-61
2022/09/27 10:45:29;;;;;;;5.47;3.63;;;14.50;97.30;;;;;;5070765;28;20531;-61
2022/09/27 10:47:57;;;;;;;5.53;3.77;;;14.60;96.40;;;;;;5064206;28;20877;-61
2022/09/27 10:50:27;;;;;;;7.93;3.70;;;14.70;96.80;;;;;;5072271;28;20882;-61
2022/09/27 10:53:13;;;;;;;3.03;2.73;;;14.70;96.40;;;;;;5075688;28;20483;-60
2022/09/27 10:55:40;;;;;;;6.20;3.83;;;14.60;96.30;;;;;;5075677;28;20474;-60
2022/09/27 10:58:17;;;;;;;4.67;4.03;;;14.20;95.50;;;;;;5060564;28;20685;-60
2022/09/27 11:00:53;;;;;;;4.77;3.23;;;13.90;96.20;;;;;;5075882;28;20485;-61
2022/09/27 11:03:20;;;;;;;6.20;5.33;;;13.60;96.30;;;;;;5067879;28;20481;-60
2022/09/27 11:05:48;;;;;;;5.70;3.60;;;13.40;97.10;;;;;;5073273;28;20842;-60
2022/09/27 11:08:29;;;;;;;5.93;5.03;;;13.10;97.20;;;;;;5074131;28;20493;-60
2022/09/27 11:11:12;;;;;;;8.00;2.73;;;12.90;97.60;;;;;;5072184;28;21061;-60
2022/09/27 11:13:39;;;;;;;5.10;4.27;;;12.90;98.50;;;;;;5064096;28;20486;-60
2022/09/27 11:16:21;;;;;;;5.90;2.27;;;12.90;98.30;;;;;;5074024;28;20490;-60
2022/09/27 11:18:57;;;;;;;6.47;3.57;;;12.80;98.30;;;;;;5072411;28;21034;-61
2022/09/27 11:21:38;;;;;;;11.87;3.80;;;12.80;98.70;;;;;;5073308;28;21013;-60
2022/09/27 11:24:21;;;;;;;3.00;2.70;;;12.80;99.30;;;;;;5064276;28;20505;-60
2022/09/27 11:26:57;;;;;;;4.00;2.97;;;12.80;99.60;;;;;;5074385;28;20482;-60
2022/09/27 11:29:34;;;;;;;5.50;3.80;;;12.80;98.90;;;;;;5071376;28;21077;-60
2022/09/27 11:32:16;;;;;;;7.40;3.30;;;12.60;98.00;;;;;;5071576;28;20475;-60
2022/09/27 11:34:53;;;;;;;3.20;2.90;;;;;;;;;;5065055;28;20482;-60
2022/09/27 11:37:30;;;;;;;4.70;4.30;;;12.50;99.50;;;;;;5068509;28;20478;-60
2022/09/27 11:40:05;;;;;;;3.97;3.03;;;12.40;99.70;;;;;;5062065;28;20489;-60
2022/09/27 11:43:01;;;;;;;5.87;2.93;;;12.40;99.30;;;;;;5059673;28;21256;-60
2022/09/27 11:45:40;;;;;;;11.90;3.63;;;12.40;99.60;;;;;;5076478;28;21001;-60
2022/09/27 11:48:21;;;;;;;4.40;3.53;;;12.30;99.90;;;;;;5070690;28;20478;-60
2022/09/27 11:51:05;;;;;;;12.83;3.13;;;12.30;99.90;;;;;;5074001;28;21230;-61
2022/09/27 11:53:50;;;;;;;10.40;3.90;;;12.30;99.90;;;;;;5074436;28;21168;-60
2022/09/27 11:56:25;;;;;;;4.97;4.57;;;12.10;99.90;;;;;;5064542;28;21268;-61
2022/09/27 11:59:07;;;;;;;5.13;3.50;;;12.00;99.90;;;;;;5076554;28;20564;-60
2022/09/27 12:01:41;;;;;;;3.83;3.53;;;12.20;99.90;;;;;;5075362;28;20493;-60
2022/09/27 12:04:47;;;;;;;4.33;3.90;;;12.30;99.90;;;;;;5077991;28;20966;-60
2022/09/27 12:07:22;;;;;;;8.43;5.00;;;12.30;99.90;;;;;;4989420;28;20489;-61
2022/09/27 12:09:53;;;;;;;4.60;2.63;;;12.20;99.90;;;;;;5057461;28;20548;-61
2022/09/27 12:12:23;;;;;;;6.23;4.50;;;12.20;99.90;;;;;;5058018;28;20572;-60
2022/09/27 12:14:53;;;;;;;5.30;2.90;;;12.30;99.90;;;;;;5083301;28;20502;-61
2022/09/27 12:17:24;;;;;;;9.23;4.50;;;12.20;99.90;;;;;;5072118;28;20953;-61
2022/09/27 12:19:54;;;;;;;4.57;2.23;;;12.20;99.90;;;;;;5070795;28;20481;-61
2022/09/27 12:22:28;;;;;;;8.47;3.33;;;12.10;99.90;;;;;;5073715;28;20998;-61
2022/09/27 12:24:56;;;;;;;4.43;3.07;;;12.10;99.90;;;;;;5072688;28;20892;-61
2022/09/27 12:27:33;;;;;;;7.13;4.60;;;12.10;99.90;;;;;;5070547;28;20918;-61
2022/09/27 12:30:01;;;;;;;5.97;2.53;;;12.10;99.90;;;;;;5072528;28;20474;-61
2022/09/27 12:32:37;;;;;;;4.30;3.30;;;12.20;99.90;;;;;;5070381;28;20517;-61
2022/09/27 12:35:10;;;;;;;2.90;2.70;;;12.20;99.90;;;;;;5074105;28;20497;-60
2022/09/27 12:37:42;;;;;;;8.10;3.40;;;12.40;99.90;;;;;;5067138;28;20487;-61
2022/09/27 12:40:18;;;;;;;7.57;2.53;;;12.50;99.90;;;;;;5071384;28;20848;-61
2022/09/27 12:42:50;;;;;;;4.20;2.40;;;12.60;99.90;;;;;;5069990;28;20512;-62
2022/09/27 12:45:26;;;;;;;5.73;3.50;;;12.60;99.90;;;;;;5062261;28;20479;-62
2022/09/27 12:48:04;;;;;;;3.37;2.37;;;12.50;99.90;;;;;;5059123;28;20500;-62
2022/09/27 12:50:38;;;;;;;2.03;1.83;;;12.60;99.90;;;;;;5068716;28;20474;-62
2022/09/27 12:53:12;;;;;;;2.90;2.70;;;12.60;99.60;;;;;;5068755;28;20598;-62
2022/09/27 12:56:02;;;;;;;3.67;2.80;;;12.60;99.50;;;;;;5056078;28;20737;-61
2022/09/27 12:58:52;;;;;;;2.90;2.70;;;12.50;99.50;;;;;;5061376;28;20471;-63
2022/09/27 13:01:33;;;;;;;5.20;3.93;;;12.50;99.80;;;;;;5037038;28;20932;-61
2022/09/27 13:04:09;;;;;;;2.50;2.27;;;;;;;;;;5063969;28;20494;-62
2022/09/27 13:06:47;;;;;;;4.20;3.80;;;12.20;99.60;;;;;;5066722;28;20490;-63
2022/09/27 13:09:49;;;;;;;7.77;4.90;;;12.20;99.90;;;;;;5070728;28;20870;-62
2022/09/27 13:12:20;;;;;;;4.77;4.30;;;12.20;99.90;;;;;;5069017;28;20470;-62